sensor_id;sensor_type;location;lat;lon;timestamp;pressure;altitude;pressure_sealevel;temperature;humidity
54321;BME280;40219;55.838;-4.266;2022-08-18T00:02:22;101105.65;;;18.38;33.93
54321;BME280;40219;55.838;-4.266;2022-08-18T00:04:51;101101.86;;;18.08;34.05
54321;BME280;40219;55.838;-4.266;2022-08-18T00:07:21;101102.64;;;18.10;34.28
54321;BME280;40219;55.838;-4.266;2022-08-18T00:09:48;101101.12;;;18.11;34.11
54321;BME280;40219;55.838;-4.266;2022-08-18T00:12:18;101094.67;;;18.59;34.26
54321;BME280;40219;55.838;-4.266;2022-08-18T00:14:46;101092.92;;;18.39;34.09
54321;BME280;40219;55.838;-4.266;2022-08-18T00:17:14;101092.34;;;18.39;34.36
54321;BME280;40219;55.838;-4.266;2022-08-18T00:19:42;101091.75;;;18.50;34.23
54321;BME280;40219;55.838;-4.266;2022-08-18T00:22:11;101090.42;;;18.34;34.12
54321;BME280;40219;55.838;-4.266;2022-08-18T00:24:39;101095.32;;;18.29;34.26
54321;BME280;40219;55.838;-4.266;2022-08-18T00:27:06;101096.01;;;18.34;34.37
54321;BME280;40219;55.838;-4.266;2022-08-18T00:29:33;101091.27;;;18.43;34.21
54321;BME280;40219;55.838;-4.266;2022-08-18T00:32:11;101081.36;;;18.48;34.14
54321;BME280;40219;55.838;-4.266;2022-08-18T00:34:39;101074.15;;;18.87;34.24
54321;BME280;40219;55.838;-4.266;2022-08-18T00:37:07;101070.74;;;18.67;34.31
54321;BME280;40219;55.838;-4.266;2022-08-18T00:39:35;101061.15;;;18.95;34.41
54321;BME280;40219;55.838;-4.266;2022-08-18T00:42:13;101061.79;;;18.53;34.27
54321;BME280;40219;55.838;-4.266;2022-08-18T00:44:41;101063.27;;;18.72;34.37
54321;BME280;40219;55.838;-4.266;2022-08-18T00:47:08;101061.83;;;18.46;34.39
54321;BME280;40219;55.838;-4.266;2022-08-18T00:49:38;101060.88;;;18.38;34.39
54321;BME280;40219;55.838;-4.266;2022-08-18T00:52:09;101056.22;;;18.31;34.57
54321;BME280;40219;55.838;-4.266;2022-08-18T00:54:39;101049.93;;;18.64;34.81
54321;BME280;40219;55.838;-4.266;2022-08-18T00:57:08;101048.59;;;18.38;35.01
54321;BME280;40219;55.838;-4.266;2022-08-18T00:59:39;101050.46;;;18.21;35.13
54321;BME280;40219;55.838;-4.266;2022-08-18T01:02:18;101046.50;;;18.63;35.00
54321;BME280;40219;55.838;-4.266;2022-08-18T01:04:52;101042.73;;;18.65;35.05
54321;BME280;40219;55.838;-4.266;2022-08-18T01:07:25;101041.30;;;18.63;35.00
54321;BME280;40219;55.838;-4.266;2022-08-18T01:09:53;101041.47;;;18.54;35.06
54321;BME280;40219;55.838;-4.266;2022-08-18T01:12:21;101037.47;;;18.05;35.19
54321;BME280;40219;55.838;-4.266;2022-08-18T01:14:49;101036.58;;;18.24;35.22
54321;BME280;40219;55.838;-4.266;2022-08-18T01:17:16;101034.35;;;18.44;35.47
54321;BME280;40219;55.838;-4.266;2022-08-18T01:19:44;101032.12;;;18.05;35.56
54321;BME280;40219;55.838;-4.266;2022-08-18T01:22:18;101030.51;;;18.30;35.37
54321;BME280;40219;55.838;-4.266;2022-08-18T01:24:50;101033.41;;;18.14;35.24
54321;BME280;40219;55.838;-4.266;2022-08-18T01:27:18;101034.68;;;18.38;35.55
54321;BME280;40219;55.838;-4.266;2022-08-18T01:29:47;101035.46;;;18.66;35.41
54321;BME280;40219;55.838;-4.266;2022-08-18T01:32:18;101037.14;;;18.06;35.51
54321;BME280;40219;55.838;-4.266;2022-08-18T01:34:46;101038.07;;;18.48;35.37
54321;BME280;40219;55.838;-4.266;2022-08-18T01:37:17;101033.85;;;18.76;35.22
54321;BME280;40219;55.838;-4.266;2022-08-18T01:39:45;101026.97;;;18.58;35.09
54321;BME280;40219;55.838;-4.266;2022-08-18T01:42:14;101022.61;;;18.50;35.14
54321;BME280;40219;55.838;-4.266;2022-08-18T01:44:41;101015.02;;;18.50;35.47
54321;BME280;40219;55.838;-4.266;2022-08-18T01:47:10;101011.29;;;18.22;35.25
54321;BME280;40219;55.838;-4.266;2022-08-18T01:49:37;101005.39;;;18.39;35.44
54321;BME280;40219;55.838;-4.266;2022-08-18T01:52:05;101001.58;;;18.68;35.65
54321;BME280;40219;55.838;-4.266;2022-08-18T01:54:33;100996.99;;;18.74;35.66
54321;BME280;40219;55.838;-4.266;2022-08-18T01:57:01;100993.32;;;18.61;35.66
54321;BME280;40219;55.838;-4.266;2022-08-18T01:59:28;100990.91;;;18.68;35.65
54321;BME280;40219;55.838;-4.266;2022-08-18T02:01:56;100990.85;;;18.75;35.63
54321;BME280;40219;55.838;-4.266;2022-08-18T02:04:26;100988.31;;;18.81;35.67
54321;BME280;40219;55.838;-4.266;2022-08-18T02:06:54;100987.09;;;18.83;35.75
54321;BME280;40219;55.838;-4.266;2022-08-18T02:09:22;100984.26;;;18.84;35.81
54321;BME280;40219;55.838;-4.266;2022-08-18T02:11:50;100978.68;;;19.06;35.70
54321;BME280;40219;55.838;-4.266;2022-08-18T02:14:18;100976.20;;;18.81;35.98
54321;BME280;40219;55.838;-4.266;2022-08-18T02:16:46;100972.26;;;18.55;36.08
54321;BME280;40219;55.838;-4.266;2022-08-18T02:19:14;100966.52;;;18.73;36.31
54321;BME280;40219;55.838;-4.266;2022-08-18T02:21:41;100967.41;;;18.64;36.64
54321;BME280;40219;55.838;-4.266;2022-08-18T02:24:09;100963.43;;;18.70;36.92
54321;BME280;40219;55.838;-4.266;2022-08-18T02:26:36;100962.37;;;18.76;36.93
54321;BME280;40219;55.838;-4.266;2022-08-18T02:29:03;100959.93;;;18.77;36.88
54321;BME280;40219;55.838;-4.266;2022-08-18T02:31:30;100960.91;;;18.75;37.01
54321;BME280;40219;55.838;-4.266;2022-08-18T02:33:57;100953.71;;;18.76;37.15
54321;BME280;40219;55.838;-4.266;2022-08-18T02:36:25;100953.47;;;19.04;37.19
54321;BME280;40219;55.838;-4.266;2022-08-18T02:38:53;100947.68;;;19.07;37.26
54321;BME280;40219;55.838;-4.266;2022-08-18T02:41:22;100943.55;;;18.65;37.22
54321;BME280;40219;55.838;-4.266;2022-08-18T02:43:50;100941.01;;;18.97;37.15
54321;BME280;40219;55.838;-4.266;2022-08-18T02:46:17;100930.70;;;19.00;37.10
54321;BME280;40219;55.838;-4.266;2022-08-18T02:48:44;100931.38;;;18.50;37.24
54321;BME280;40219;55.838;-4.266;2022-08-18T02:51:14;100925.76;;;18.90;37.30
54321;BME280;40219;55.838;-4.266;2022-08-18T02:53:44;100920.61;;;18.91;37.41
54321;BME280;40219;55.838;-4.266;2022-08-18T02:56:13;100910.95;;;18.95;37.47
54321;BME280;40219;55.838;-4.266;2022-08-18T02:58:40;100899.48;;;18.97;37.48
54321;BME280;40219;55.838;-4.266;2022-08-18T03:01:07;100899.20;;;19.04;37.52
54321;BME280;40219;55.838;-4.266;2022-08-18T03:03:35;100893.34;;;19.05;37.54
54321;BME280;40219;55.838;-4.266;2022-08-18T03:06:03;100900.93;;;18.97;37.44
54321;BME280;40219;55.838;-4.266;2022-08-18T03:08:31;100905.77;;;19.00;37.77
54321;BME280;40219;55.838;-4.266;2022-08-18T03:10:59;100902.55;;;19.00;37.64
54321;BME280;40219;55.838;-4.266;2022-08-18T03:13:26;100896.18;;;18.82;37.74
54321;BME280;40219;55.838;-4.266;2022-08-18T03:15:53;100893.72;;;19.14;37.60
54321;BME280;40219;55.838;-4.266;2022-08-18T03:18:20;100896.60;;;19.21;37.62
54321;BME280;40219;55.838;-4.266;2022-08-18T03:20:48;100891.00;;;19.27;37.45
54321;BME280;40219;55.838;-4.266;2022-08-18T03:23:16;100886.13;;;19.31;37.49
54321;BME280;40219;55.838;-4.266;2022-08-18T03:25:46;100877.52;;;18.99;37.56
54321;BME280;40219;55.838;-4.266;2022-08-18T03:28:14;100872.44;;;18.97;37.49
54321;BME280;40219;55.838;-4.266;2022-08-18T03:30:42;100872.40;;;18.99;37.65
54321;BME280;40219;55.838;-4.266;2022-08-18T03:33:10;100874.42;;;19.26;37.69
54321;BME280;40219;55.838;-4.266;2022-08-18T03:35:38;100868.68;;;19.29;37.63
54321;BME280;40219;55.838;-4.266;2022-08-18T03:38:06;100870.25;;;19.07;37.49
54321;BME280;40219;55.838;-4.266;2022-08-18T03:40:33;100869.45;;;18.79;37.57
54321;BME280;40219;55.838;-4.266;2022-08-18T03:43:02;100867.26;;;18.98;37.62
54321;BME280;40219;55.838;-4.266;2022-08-18T03:45:29;100862.19;;;18.87;37.66
54321;BME280;40219;55.838;-4.266;2022-08-18T03:47:57;100859.25;;;19.02;37.81
54321;BME280;40219;55.838;-4.266;2022-08-18T03:50:25;100856.72;;;18.92;37.99
54321;BME280;40219;55.838;-4.266;2022-08-18T03:52:53;100854.67;;;18.85;38.13
54321;BME280;40219;55.838;-4.266;2022-08-18T03:55:21;100850.83;;;18.87;38.31
54321;BME280;40219;55.838;-4.266;2022-08-18T03:57:49;100845.69;;;18.85;38.19
54321;BME280;40219;55.838;-4.266;2022-08-18T04:00:17;100836.60;;;18.59;38.18
54321;BME280;40219;55.838;-4.266;2022-08-18T04:02:44;100828.49;;;18.87;38.22
54321;BME280;40219;55.838;-4.266;2022-08-18T04:05:11;100821.85;;;18.89;38.14
54321;BME280;40219;55.838;-4.266;2022-08-18T04:07:39;100820.83;;;18.87;38.16
54321;BME280;40219;55.838;-4.266;2022-08-18T04:10:08;100822.25;;;18.90;38.17
54321;BME280;40219;55.838;-4.266;2022-08-18T04:12:36;100814.18;;;18.94;38.06
54321;BME280;40219;55.838;-4.266;2022-08-18T04:15:04;100811.27;;;18.70;38.07
54321;BME280;40219;55.838;-4.266;2022-08-18T04:17:31;100809.97;;;18.73;38.06
54321;BME280;40219;55.838;-4.266;2022-08-18T04:19:58;100808.42;;;18.93;37.95
54321;BME280;40219;55.838;-4.266;2022-08-18T04:22:25;100807.36;;;19.05;38.11
54321;BME280;40219;55.838;-4.266;2022-08-18T04:24:53;100804.47;;;19.16;38.19
54321;BME280;40219;55.838;-4.266;2022-08-18T04:27:21;100805.77;;;18.96;38.13
54321;BME280;40219;55.838;-4.266;2022-08-18T04:29:49;100808.02;;;18.97;38.05
54321;BME280;40219;55.838;-4.266;2022-08-18T04:32:16;100805.30;;;18.96;38.08
54321;BME280;40219;55.838;-4.266;2022-08-18T04:34:44;100809.13;;;18.97;38.05
54321;BME280;40219;55.838;-4.266;2022-08-18T04:37:12;100806.63;;;18.92;38.03
54321;BME280;40219;55.838;-4.266;2022-08-18T04:39:40;100804.52;;;18.93;38.19
54321;BME280;40219;55.838;-4.266;2022-08-18T04:42:08;100804.30;;;18.96;38.16
54321;BME280;40219;55.838;-4.266;2022-08-18T04:44:35;100799.19;;;18.95;38.09
54321;BME280;40219;55.838;-4.266;2022-08-18T04:47:04;100794.97;;;18.72;38.24
54321;BME280;40219;55.838;-4.266;2022-08-18T04:49:32;100794.07;;;19.02;38.13
54321;BME280;40219;55.838;-4.266;2022-08-18T04:51:59;100789.92;;;19.04;38.20
54321;BME280;40219;55.838;-4.266;2022-08-18T04:54:27;100789.81;;;19.12;38.10
54321;BME280;40219;55.838;-4.266;2022-08-18T04:56:55;100790.27;;;19.11;38.15
54321;BME280;40219;55.838;-4.266;2022-08-18T04:59:23;100788.94;;;18.79;38.19
54321;BME280;40219;55.838;-4.266;2022-08-18T05:01:52;100789.32;;;19.00;38.37
54321;BME280;40219;55.838;-4.266;2022-08-18T05:04:19;100791.04;;;19.06;38.34
54321;BME280;40219;55.838;-4.266;2022-08-18T05:06:46;100790.64;;;19.06;38.28
54321;BME280;40219;55.838;-4.266;2022-08-18T05:09:14;100792.51;;;19.11;38.36
54321;BME280;40219;55.838;-4.266;2022-08-18T05:11:42;100789.78;;;18.90;38.33
54321;BME280;40219;55.838;-4.266;2022-08-18T05:14:10;100789.76;;;18.76;38.33
54321;BME280;40219;55.838;-4.266;2022-08-18T05:16:38;100784.93;;;19.01;38.18
54321;BME280;40219;55.838;-4.266;2022-08-18T05:19:07;100779.25;;;19.30;38.22
54321;BME280;40219;55.838;-4.266;2022-08-18T05:21:35;100775.75;;;19.39;38.27
54321;BME280;40219;55.838;-4.266;2022-08-18T05:24:03;100770.40;;;19.17;38.06
54321;BME280;40219;55.838;-4.266;2022-08-18T05:26:31;100759.74;;;19.46;38.09
54321;BME280;40219;55.838;-4.266;2022-08-18T05:28:59;100758.20;;;19.47;38.07
54321;BME280;40219;55.838;-4.266;2022-08-18T05:31:28;100758.34;;;19.14;38.18
54321;BME280;40219;55.838;-4.266;2022-08-18T05:33:56;100760.30;;;18.79;38.49
54321;BME280;40219;55.838;-4.266;2022-08-18T05:36:35;100753.29;;;19.20;38.61
54321;BME280;40219;55.838;-4.266;2022-08-18T05:39:18;100746.14;;;18.94;38.83
54321;BME280;40219;55.838;-4.266;2022-08-18T05:41:50;100738.69;;;19.04;38.79
54321;BME280;40219;55.838;-4.266;2022-08-18T05:44:24;100730.09;;;19.03;38.56
54321;BME280;40219;55.838;-4.266;2022-08-18T05:46:53;100728.37;;;19.00;38.75
54321;BME280;40219;55.838;-4.266;2022-08-18T05:49:24;100724.92;;;19.06;38.78
54321;BME280;40219;55.838;-4.266;2022-08-18T05:51:56;100733.17;;;19.10;38.75
54321;BME280;40219;55.838;-4.266;2022-08-18T05:54:26;100735.99;;;19.21;38.75
54321;BME280;40219;55.838;-4.266;2022-08-18T05:57:03;100735.78;;;19.61;38.65
54321;BME280;40219;55.838;-4.266;2022-08-18T05:59:34;100734.25;;;19.67;38.45
54321;BME280;40219;55.838;-4.266;2022-08-18T06:02:09;100732.89;;;19.41;38.46
54321;BME280;40219;55.838;-4.266;2022-08-18T06:04:44;100729.21;;;19.61;38.59
54321;BME280;40219;55.838;-4.266;2022-08-18T06:07:25;100723.23;;;19.56;38.26
54321;BME280;40219;55.838;-4.266;2022-08-18T06:09:54;100727.98;;;20.09;38.08
54321;BME280;40219;55.838;-4.266;2022-08-18T06:12:26;100726.27;;;19.62;38.12
54321;BME280;40219;55.838;-4.266;2022-08-18T06:15:08;100728.28;;;19.90;38.02
54321;BME280;40219;55.838;-4.266;2022-08-18T06:17:57;100719.76;;;19.53;37.95
54321;BME280;40219;55.838;-4.266;2022-08-18T06:20:33;100718.57;;;20.18;38.06
54321;BME280;40219;55.838;-4.266;2022-08-18T06:23:17;100719.45;;;19.64;38.00
54321;BME280;40219;55.838;-4.266;2022-08-18T06:26:02;100721.82;;;19.54;38.43
54321;BME280;40219;55.838;-4.266;2022-08-18T06:28:44;100722.44;;;19.39;38.80
54321;BME280;40219;55.838;-4.266;2022-08-18T06:31:19;100717.98;;;19.03;38.96
54321;BME280;40219;55.838;-4.266;2022-08-18T06:33:55;100710.94;;;19.05;39.43
54321;BME280;40219;55.838;-4.266;2022-08-18T06:36:36;100706.18;;;19.06;39.30
54321;BME280;40219;55.838;-4.266;2022-08-18T06:39:13;100703.89;;;18.99;39.23
54321;BME280;40219;55.838;-4.266;2022-08-18T06:41:46;100696.13;;;19.23;38.89
54321;BME280;40219;55.838;-4.266;2022-08-18T06:44:20;100687.64;;;19.20;38.77
54321;BME280;40219;55.838;-4.266;2022-08-18T06:46:54;100685.94;;;19.11;38.86
54321;BME280;40219;55.838;-4.266;2022-08-18T06:49:31;100682.55;;;19.12;38.80
54321;BME280;40219;55.838;-4.266;2022-08-18T06:52:21;100681.01;;;18.88;38.84
54321;BME280;40219;55.838;-4.266;2022-08-18T06:54:50;100680.99;;;19.00;38.99
54321;BME280;40219;55.838;-4.266;2022-08-18T06:57:25;100666.00;;;19.33;39.02
54321;BME280;40219;55.838;-4.266;2022-08-18T06:59:59;100663.95;;;19.19;38.96
54321;BME280;40219;55.838;-4.266;2022-08-18T07:02:41;100653.73;;;19.34;38.72
54321;BME280;40219;55.838;-4.266;2022-08-18T07:05:19;100655.64;;;19.25;38.78
54321;BME280;40219;55.838;-4.266;2022-08-18T07:08:05;100656.82;;;19.21;38.88
54321;BME280;40219;55.838;-4.266;2022-08-18T07:10:35;100655.05;;;19.34;38.83
54321;BME280;40219;55.838;-4.266;2022-08-18T07:13:15;100655.66;;;19.79;38.76
54321;BME280;40219;55.838;-4.266;2022-08-18T07:15:43;100659.18;;;19.95;38.66
54321;BME280;40219;55.838;-4.266;2022-08-18T07:18:13;100658.82;;;19.87;38.36
54321;BME280;40219;55.838;-4.266;2022-08-18T07:20:43;100657.88;;;19.37;38.28
54321;BME280;40219;55.838;-4.266;2022-08-18T07:23:23;100658.42;;;19.65;38.23
54321;BME280;40219;55.838;-4.266;2022-08-18T07:26:02;100649.33;;;19.78;38.12
54321;BME280;40219;55.838;-4.266;2022-08-18T07:28:34;100651.29;;;19.75;38.07
54321;BME280;40219;55.838;-4.266;2022-08-18T07:31:14;100658.39;;;19.97;37.75
54321;BME280;40219;55.838;-4.266;2022-08-18T07:33:49;100652.75;;;19.98;37.73
54321;BME280;40219;55.838;-4.266;2022-08-18T07:36:19;100656.12;;;20.23;37.79
54321;BME280;40219;55.838;-4.266;2022-08-18T07:38:53;100658.07;;;19.91;37.31
54321;BME280;40219;55.838;-4.266;2022-08-18T07:41:25;100657.42;;;20.11;37.34
54321;BME280;40219;55.838;-4.266;2022-08-18T07:44:02;100658.40;;;20.07;37.28
54321;BME280;40219;55.838;-4.266;2022-08-18T07:46:36;100659.78;;;19.48;37.48
54321;BME280;40219;55.838;-4.266;2022-08-18T07:49:05;100658.36;;;19.61;37.93
54321;BME280;40219;55.838;-4.266;2022-08-18T07:51:43;100657.11;;;19.64;37.96
54321;BME280;40219;55.838;-4.266;2022-08-18T07:54:18;100652.05;;;19.93;37.85
54321;BME280;40219;55.838;-4.266;2022-08-18T07:56:51;100653.54;;;19.77;37.78
54321;BME280;40219;55.838;-4.266;2022-08-18T07:59:25;100646.39;;;19.79;37.75
54321;BME280;40219;55.838;-4.266;2022-08-18T08:02:12;100649.90;;;20.17;38.03
54321;BME280;40219;55.838;-4.266;2022-08-18T08:04:53;100648.71;;;19.66;38.19
54321;BME280;40219;55.838;-4.266;2022-08-18T08:07:26;100649.15;;;19.59;38.55
54321;BME280;40219;55.838;-4.266;2022-08-18T08:10:09;100652.15;;;19.53;38.67
54321;BME280;40219;55.838;-4.266;2022-08-18T08:12:44;100646.33;;;19.37;39.05
54321;BME280;40219;55.838;-4.266;2022-08-18T08:15:25;100645.33;;;19.16;39.68
54321;BME280;40219;55.838;-4.266;2022-08-18T08:18:07;100642.76;;;19.07;40.18
54321;BME280;40219;55.838;-4.266;2022-08-18T08:20:42;100636.35;;;19.29;40.43
54321;BME280;40219;55.838;-4.266;2022-08-18T08:23:22;100636.97;;;19.24;40.67
54321;BME280;40219;55.838;-4.266;2022-08-18T08:26:01;100633.65;;;19.37;40.66
54321;BME280;40219;55.838;-4.266;2022-08-18T08:28:40;100632.95;;;19.47;40.41
54321;BME280;40219;55.838;-4.266;2022-08-18T08:31:13;100633.05;;;19.54;40.27
54321;BME280;40219;55.838;-4.266;2022-08-18T08:33:48;100632.54;;;19.15;40.43
54321;BME280;40219;55.838;-4.266;2022-08-18T08:36:22;100622.32;;;19.43;40.56
54321;BME280;40219;55.838;-4.266;2022-08-18T08:38:57;100618.26;;;19.77;40.45
54321;BME280;40219;55.838;-4.266;2022-08-18T08:41:32;100618.39;;;19.75;40.18
54321;BME280;40219;55.838;-4.266;2022-08-18T08:44:10;100618.69;;;19.96;40.09
54321;BME280;40219;55.838;-4.266;2022-08-18T08:46:45;100619.08;;;20.17;39.29
54321;BME280;40219;55.838;-4.266;2022-08-18T08:49:25;100612.58;;;20.55;38.87
54321;BME280;40219;55.838;-4.266;2022-08-18T08:52:00;100609.37;;;20.27;38.53
54321;BME280;40219;55.838;-4.266;2022-08-18T08:54:37;100606.91;;;20.71;38.41
54321;BME280;40219;55.838;-4.266;2022-08-18T08:57:07;100604.17;;;20.38;38.30
54321;BME280;40219;55.838;-4.266;2022-08-18T08:59:37;100604.92;;;21.19;37.83
54321;BME280;40219;55.838;-4.266;2022-08-18T09:02:22;100600.57;;;21.52;37.09
54321;BME280;40219;55.838;-4.266;2022-08-18T09:04:59;100595.75;;;21.90;35.80
54321;BME280;40219;55.838;-4.266;2022-08-18T09:07:44;100593.50;;;22.00;35.70
54321;BME280;40219;55.838;-4.266;2022-08-18T09:10:29;100596.75;;;22.18;35.27
54321;BME280;40219;55.838;-4.266;2022-08-18T09:13:20;100590.91;;;22.50;34.36
54321;BME280;40219;55.838;-4.266;2022-08-18T09:16:11;100590.55;;;22.64;33.99
54321;BME280;40219;55.838;-4.266;2022-08-18T09:18:52;100587.08;;;22.50;33.73
54321;BME280;40219;55.838;-4.266;2022-08-18T09:21:34;100590.35;;;22.82;33.79
54321;BME280;40219;55.838;-4.266;2022-08-18T09:24:11;100586.38;;;22.54;33.18
54321;BME280;40219;55.838;-4.266;2022-08-18T09:26:50;100586.59;;;22.33;32.97
54321;BME280;40219;55.838;-4.266;2022-08-18T09:29:24;100579.63;;;22.68;33.01
54321;BME280;40219;55.838;-4.266;2022-08-18T09:33:08;100575.56;;;23.01;32.63
54321;BME280;40219;55.838;-4.266;2022-08-18T09:36:08;100576.94;;;23.72;32.00
54321;BME280;40219;55.838;-4.266;2022-08-18T09:38:48;100569.82;;;22.87;32.26
54321;BME280;40219;55.838;-4.266;2022-08-18T09:41:19;100565.60;;;22.73;32.87
54321;BME280;40219;55.838;-4.266;2022-08-18T09:43:58;100569.52;;;22.40;33.55
54321;BME280;40219;55.838;-4.266;2022-08-18T09:46:51;100570.56;;;22.04;33.90
54321;BME280;40219;55.838;-4.266;2022-08-18T09:49:52;100564.32;;;22.36;34.35
54321;BME280;40219;55.838;-4.266;2022-08-18T09:52:55;100558.24;;;22.32;34.50
54321;BME280;40219;55.838;-4.266;2022-08-18T09:55:56;100561.80;;;22.06;34.35
54321;BME280;40219;55.838;-4.266;2022-08-18T09:58:49;100559.41;;;22.44;33.88
54321;BME280;40219;55.838;-4.266;2022-08-18T10:01:21;100556.45;;;22.07;34.12
54321;BME280;40219;55.838;-4.266;2022-08-18T10:05:25;100556.31;;;21.93;34.44
54321;BME280;40219;55.838;-4.266;2022-08-18T10:07:56;100546.91;;;21.81;35.08
54321;BME280;40219;55.838;-4.266;2022-08-18T10:10:56;100538.03;;;21.89;35.00
54321;BME280;40219;55.838;-4.266;2022-08-18T10:13:33;100532.70;;;21.90;35.22
54321;BME280;40219;55.838;-4.266;2022-08-18T10:16:08;100532.87;;;21.85;35.00
54321;BME280;40219;55.838;-4.266;2022-08-18T10:18:51;100524.19;;;22.67;34.59
54321;BME280;40219;55.838;-4.266;2022-08-18T10:21:22;100515.14;;;23.12;33.49
54321;BME280;40219;55.838;-4.266;2022-08-18T10:23:54;100515.16;;;23.07;33.22
54321;BME280;40219;55.838;-4.266;2022-08-18T10:26:59;100512.39;;;23.91;32.49
54321;BME280;40219;55.838;-4.266;2022-08-18T10:29:45;100515.20;;;23.79;32.50
54321;BME280;40219;55.838;-4.266;2022-08-18T10:32:45;100507.01;;;23.91;31.99
54321;BME280;40219;55.838;-4.266;2022-08-18T10:36:51;100502.37;;;23.99;31.66
54321;BME280;40219;55.838;-4.266;2022-08-18T10:39:21;100503.15;;;24.14;31.80
54321;BME280;40219;55.838;-4.266;2022-08-18T10:41:57;100506.47;;;24.30;31.79
54321;BME280;40219;55.838;-4.266;2022-08-18T10:44:31;100509.61;;;23.66;32.06
54321;BME280;40219;55.838;-4.266;2022-08-18T10:47:01;100510.88;;;23.74;32.80
54321;BME280;40219;55.838;-4.266;2022-08-18T10:49:31;100507.64;;;22.97;33.66
54321;BME280;40219;55.838;-4.266;2022-08-18T10:52:47;100501.95;;;22.57;34.35
54321;BME280;40219;55.838;-4.266;2022-08-18T10:55:32;100501.49;;;22.56;34.45
54321;BME280;40219;55.838;-4.266;2022-08-18T10:58:18;100498.50;;;22.17;34.92
54321;BME280;40219;55.838;-4.266;2022-08-18T11:01:02;100501.05;;;22.89;34.25
54321;BME280;40219;55.838;-4.266;2022-08-18T11:03:43;100494.82;;;22.67;34.74
54321;BME280;40219;55.838;-4.266;2022-08-18T11:06:18;100492.40;;;22.51;34.87
54321;BME280;40219;55.838;-4.266;2022-08-18T11:08:50;100487.04;;;23.28;34.59
54321;BME280;40219;55.838;-4.266;2022-08-18T11:11:21;100474.81;;;23.49;34.45
54321;BME280;40219;55.838;-4.266;2022-08-18T11:13:58;100477.10;;;23.72;33.78
54321;BME280;40219;55.838;-4.266;2022-08-18T11:16:39;100478.85;;;24.01;33.56
54321;BME280;40219;55.838;-4.266;2022-08-18T11:19:15;100476.66;;;25.04;32.10
54321;BME280;40219;55.838;-4.266;2022-08-18T11:21:44;100469.82;;;24.97;32.20
54321;BME280;40219;55.838;-4.266;2022-08-18T11:24:18;100471.19;;;24.43;32.46
54321;BME280;40219;55.838;-4.266;2022-08-18T11:26:47;100473.88;;;23.77;33.21
54321;BME280;40219;55.838;-4.266;2022-08-18T11:29:19;100468.82;;;23.81;33.74
54321;BME280;40219;55.838;-4.266;2022-08-18T11:31:47;100469.47;;;23.89;33.75
54321;BME280;40219;55.838;-4.266;2022-08-18T11:34:26;100469.53;;;23.55;34.03
54321;BME280;40219;55.838;-4.266;2022-08-18T11:36:56;100470.96;;;23.78;34.46
54321;BME280;40219;55.838;-4.266;2022-08-18T11:39:25;100470.18;;;23.03;34.84
54321;BME280;40219;55.838;-4.266;2022-08-18T11:41:53;100469.84;;;22.94;35.40
54321;BME280;40219;55.838;-4.266;2022-08-18T11:44:27;100465.03;;;22.46;35.63
54321;BME280;40219;55.838;-4.266;2022-08-18T11:47:09;100462.86;;;22.62;35.65
54321;BME280;40219;55.838;-4.266;2022-08-18T11:49:50;100464.25;;;22.90;35.54
54321;BME280;40219;55.838;-4.266;2022-08-18T11:52:24;100463.29;;;23.67;35.09
54321;BME280;40219;55.838;-4.266;2022-08-18T11:54:59;100464.49;;;22.76;35.01
54321;BME280;40219;55.838;-4.266;2022-08-18T11:57:30;100459.08;;;22.22;36.01
54321;BME280;40219;55.838;-4.266;2022-08-18T12:00:36;100455.45;;;21.95;36.68
54321;BME280;40219;55.838;-4.266;2022-08-18T12:03:07;100453.89;;;22.34;37.03
54321;BME280;40219;55.838;-4.266;2022-08-18T12:05:48;100457.02;;;21.90;37.26
54321;BME280;40219;55.838;-4.266;2022-08-18T12:08:20;100457.79;;;22.16;37.24
54321;BME280;40219;55.838;-4.266;2022-08-18T12:11:00;100459.97;;;22.25;37.10
54321;BME280;40219;55.838;-4.266;2022-08-18T12:13:29;100455.85;;;22.06;37.27
54321;BME280;40219;55.838;-4.266;2022-08-18T12:16:24;100456.12;;;23.02;36.39
54321;BME280;40219;55.838;-4.266;2022-08-18T12:18:58;100456.02;;;23.42;36.19
54321;BME280;40219;55.838;-4.266;2022-08-18T12:21:26;100458.56;;;24.10;35.12
54321;BME280;40219;55.838;-4.266;2022-08-18T12:23:54;100456.33;;;23.58;34.47
54321;BME280;40219;55.838;-4.266;2022-08-18T12:26:22;100450.53;;;23.01;35.02
54321;BME280;40219;55.838;-4.266;2022-08-18T12:28:50;100458.10;;;23.37;34.42
54321;BME280;40219;55.838;-4.266;2022-08-18T12:31:18;100453.37;;;22.92;35.42
54321;BME280;40219;55.838;-4.266;2022-08-18T12:33:46;100451.45;;;22.66;35.89
54321;BME280;40219;55.838;-4.266;2022-08-18T12:36:13;100458.15;;;23.11;35.38
54321;BME280;40219;55.838;-4.266;2022-08-18T12:38:42;100453.40;;;22.98;35.27
54321;BME280;40219;55.838;-4.266;2022-08-18T12:41:11;100450.43;;;23.17;35.33
54321;BME280;40219;55.838;-4.266;2022-08-18T12:43:38;100450.56;;;24.08;33.76
54321;BME280;40219;55.838;-4.266;2022-08-18T12:46:06;100444.29;;;24.36;32.77
54321;BME280;40219;55.838;-4.266;2022-08-18T12:48:35;100437.26;;;24.12;33.04
54321;BME280;40219;55.838;-4.266;2022-08-18T12:51:03;100433.39;;;24.04;33.19
54321;BME280;40219;55.838;-4.266;2022-08-18T12:53:31;100426.79;;;25.55;31.93
54321;BME280;40219;55.838;-4.266;2022-08-18T12:55:59;100420.12;;;26.15;30.50
54321;BME280;40219;55.838;-4.266;2022-08-18T12:58:27;100419.21;;;26.33;29.70
54321;BME280;40219;55.838;-4.266;2022-08-18T13:00:55;100410.67;;;25.66;30.42
54321;BME280;40219;55.838;-4.266;2022-08-18T13:03:23;100404.43;;;25.38;30.53
54321;BME280;40219;55.838;-4.266;2022-08-18T13:05:50;100405.59;;;25.90;30.42
54321;BME280;40219;55.838;-4.266;2022-08-18T13:08:19;100409.78;;;27.46;28.91
54321;BME280;40219;55.838;-4.266;2022-08-18T13:10:48;100411.75;;;27.47;28.47
54321;BME280;40219;55.838;-4.266;2022-08-18T13:13:17;100401.89;;;27.49;28.04
54321;BME280;40219;55.838;-4.266;2022-08-18T13:15:45;100403.12;;;27.76;28.15